KIPT/IPT METAR and TAF weather

Enter ICAO airport designator
Station Type Date Time Source
KIPT METAR 2020/09/22 06:54 UTC NOAA

KIPT 220654Z AUTO 32003KT 10SM CLR 04/01 A3034 RMK AO2 SLP276 T00390011


Station Type Date Time Source
KIPT Decoded METAR 2020/09/22 06:54 UTC NOAA

WILLIAMSPORT-LYCOMING COUNTY, PA, United States (KIPT) 41-15N 076-55W 164M
Sep 22, 2020 - 02:54 AM EDT / 2020.09.22 0654 UTC
Wind: from the NW (320 degrees) at 3 MPH (3 KT):0
Visibility: 10 mile(s):0
Sky conditions: clear
Temperature: 39.0 F (3.9 C)
Dew Point: 34.0 F (1.1 C)
Relative Humidity: 81%
Pressure (altimeter): 30.34 in. Hg (1027 hPa)
ob: KIPT 220654Z AUTO 32003KT 10SM CLR 04/01 A3034 RMK AO2 SLP276 T00390011
cycle: 7

Station Type Date Time Source
KIPT TAF 2020/09/22 06:22 UTC NOAA

TAF KIPT 220520Z 2206/2306 00000KT P6SM SKC
FM221400 30007KT P6SM SKC

Example: see airport list